Centerville, Ohio
Current Conditions -  °F | °C
As of 11:53 PM on Thursday 30 Oct 2014 (Local Time) from KMGY Reporting Station
Clear Clear  
Wind Chill: 33°   Ceiling: Unl
Heat Index: 38°   Visibility: 10mi
Dew Point: 34°   Wind: 7mph
Humidity: 86%   Direction: 60°ENE
Pressure: 30.04"   Gusts: NA
Location:  39.6468°N, 84.1683°W
Report Text: KMGY 310353Z AUTO 06006KT 10SM CLR 03/01 A3004 RMK AO2 SLP176 T00330011
Loading
Personal Weather Stations






























Interactive Weather Map
Tropical Storm Tracking
New forecast layout! Learn more

10-Day Weather Forecast

Advertisements
Track Severe Weather on mobile